Time;durP1;ratioP1;P1;durP2;ratioP2;P2;SDS_P1;SDS_P2;PMS_P1;PMS_P2;Temp;Humidity;BMP_temperature;BMP_pressure;BME280_temperature;BME280_humidity;BME280_pressure;Samples;Min_cycle;Max_cycle;Signal;HPM_P1;HPM_P2
2023/12/04 00:02:03;;;;;;;18.70;12.38;;;;;;;-145.63;54.49;39104.44;5075020;28;20094;-66
2023/12/04 00:04:29;;;;;;;16.58;12.30;;;;;;;-145.63;55.12;39123.97;5075269;28;20021;-66
2023/12/04 00:06:55;;;;;;;17.23;10.15;;;;;;;-145.63;54.88;38940.16;5065232;28;20028;-65
2023/12/04 00:09:20;;;;;;;13.43;9.90;;;;;;;-145.63;54.52;39141.59;5082822;28;20028;-66
2023/12/04 00:11:46;;;;;;;12.13;9.07;;;;;;;-145.63;55.02;39104.44;5064564;28;20040;-66
2023/12/04 00:14:12;;;;;;;13.23;9.73;;;;;;;-145.63;54.88;39135.72;5075833;28;20328;-66
2023/12/04 00:16:37;;;;;;;20.40;11.75;;;;;;;-145.63;54.65;39123.97;5072889;28;20166;-66
2023/12/04 00:19:03;;;;;;;17.50;11.30;;;;;;;-145.63;54.77;39129.84;5070085;28;20012;-66
2023/12/04 00:21:29;;;;;;;16.23;11.82;;;;;;;-145.63;55.10;39118.13;5093443;28;20066;-66
2023/12/04 00:23:55;;;;;;;15.02;10.25;;;;;;;-145.63;54.27;39108.34;5082450;28;20020;-66
2023/12/04 00:26:20;;;;;;;16.75;11.00;;;;;;;-145.63;54.35;39129.84;5066901;28;20141;-66
2023/12/04 00:28:46;;;;;;;15.18;11.13;;;;;;;-145.63;55.05;39116.16;5071901;28;20074;-66
2023/12/04 00:31:12;;;;;;;16.35;11.90;;;;;;;-145.63;55.16;39088.78;5077666;28;20025;-66
2023/12/04 00:33:37;;;;;;;17.27;11.82;;;;;;;-145.63;55.32;39118.13;5062468;28;20029;-67
2023/12/04 00:36:04;;;;;;;19.13;12.80;;;;;;;-145.63;54.52;39110.28;5080546;28;20370;-66
2023/12/04 00:38:29;;;;;;;15.63;11.00;;;;;;;-145.63;54.76;39123.97;5082359;28;20024;-66
2023/12/04 00:40:55;;;;;;;18.40;13.05;;;;;;;-145.63;55.17;39102.47;5082228;28;20321;-65
2023/12/04 00:43:21;;;;;;;21.13;15.50;;;;;;;-145.63;55.22;39129.84;5082456;28;20020;-65
2023/12/04 00:45:46;;;;;;;34.53;22.90;;;;;;;-145.63;54.46;39106.38;5080919;28;20024;-65
2023/12/04 00:48:12;;;;;;;42.28;26.58;;;;;;;-145.63;55.35;39114.22;5071660;28;20079;-66
2023/12/04 00:50:38;;;;;;;38.22;25.05;;;;;;;-145.63;54.66;38815.00;5086260;28;20032;-65
2023/12/04 00:53:04;;;;;;;38.45;25.60;;;;;;;-145.63;54.95;39120.06;5074579;28;20080;-66
2023/12/04 00:55:29;;;;;;;49.95;30.08;;;;;;;-145.63;55.37;39106.38;5073243;28;20020;-66
2023/12/04 00:57:55;;;;;;;50.00;30.02;;;;;;;-145.63;54.38;39127.91;5084127;28;20056;-66
2023/12/04 01:00:21;;;;;;;55.40;33.22;;;;;;;-145.63;55.65;39108.34;5065842;28;20028;-65
2023/12/04 01:02:47;;;;;;;46.05;27.50;;;;;;;-145.63;54.59;39096.59;5083691;28;20374;-66
2023/12/04 01:05:12;;;;;;;49.25;30.02;;;;;;;-145.63;55.02;39133.75;5073191;28;20024;-65
2023/12/04 01:07:38;;;;;;;50.15;30.65;;;;;;;-145.63;55.11;39098.56;5074272;28;20027;-65
2023/12/04 01:10:05;;;;;;;45.90;29.77;;;;;;;-145.63;54.47;39090.75;5085882;28;20039;-66
2023/12/04 01:12:30;;;;;;;41.83;26.10;;;;;;;-145.63;55.17;39102.47;5086164;28;20306;-66
2023/12/04 01:14:56;;;;;;;43.80;27.20;;;;;;;-145.63;55.56;39075.09;5066910;28;20033;-67
2023/12/04 01:17:22;;;;;;;41.15;25.88;;;;;;;-145.63;55.70;39116.16;5080008;28;20020;-67
2023/12/04 01:19:48;;;;;;;49.80;28.60;;;;;;;-145.63;54.97;39112.25;5095131;28;20138;-67
2023/12/04 01:22:13;;;;;;;42.10;25.75;;;;;;;-145.63;55.26;39090.75;5090884;28;20059;-67
2023/12/04 01:24:39;;;;;;;38.30;23.17;;;;;;;-145.63;55.91;39073.13;5085785;28;20360;-66
2023/12/04 01:27:05;;;;;;;39.72;24.98;;;;;;;-145.63;55.01;39098.56;5065852;28;20153;-66
2023/12/04 01:29:31;;;;;;;42.72;26.88;;;;;;;-145.63;55.55;39100.50;5079717;28;20223;-65
2023/12/04 01:31:57;;;;;;;41.80;26.23;;;;;;;-145.63;55.17;39090.75;5074847;28;20345;-65
2023/12/04 01:34:23;;;;;;;40.03;24.92;;;;;;;-145.63;55.57;39092.69;5070828;28;20204;-65
2023/12/04 01:36:48;;;;;;;49.13;29.58;;;;;;;-145.63;54.86;39088.78;5085331;28;20392;-65
2023/12/04 01:39:14;;;;;;;50.13;30.73;;;;;;;-145.63;54.61;39141.59;5085649;28;20036;-65
2023/12/04 01:41:40;;;;;;;46.05;28.90;;;;;;;-145.63;55.20;39102.47;5085251;28;20021;-65
2023/12/04 01:44:06;;;;;;;50.28;29.23;;;;;;;-145.63;53.71;39077.06;5084210;28;20036;-66
2023/12/04 01:46:31;;;;;;;51.20;31.10;;;;;;;-145.63;54.97;39108.34;5078437;28;20067;-67
2023/12/04 01:48:59;;;;;;;50.58;30.67;;;;;;;-145.63;55.58;39084.88;5070541;28;20116;-67
2023/12/04 01:51:26;;;;;;;48.42;30.00;;;;;;;-145.63;54.42;39106.38;5085291;28;20087;-67
2023/12/04 01:53:53;;;;;;;30.90;20.95;;;;;;;-145.63;54.84;39120.06;5067143;28;20375;-67
2023/12/04 01:56:20;;;;;;;28.40;17.60;;;;;;;-145.63;54.32;39110.28;5078447;28;20028;-66
2023/12/04 01:58:46;;;;;;;24.58;17.27;;;;;;;-145.63;54.28;39110.28;5075764;28;20328;-66
2023/12/04 02:01:12;;;;;;;18.65;13.45;;;;;;;-145.63;54.42;39102.47;5081144;28;20044;-65
2023/12/04 02:03:37;;;;;;;16.23;10.85;;;;;;;-145.63;54.27;39104.44;5064997;28;20029;-65
2023/12/04 02:06:05;;;;;;;14.93;10.52;;;;;;;-145.63;54.61;39110.28;5084170;28;20029;-65
2023/12/04 02:08:31;;;;;;;14.93;11.13;;;;;;;-145.63;53.67;39080.97;5084784;28;20020;-65
2023/12/04 02:10:57;;;;;;;14.70;10.35;;;;;;;-145.63;54.03;39102.47;5083955;28;20360;-66
2023/12/04 02:13:23;;;;;;;14.63;10.30;;;;;;;-145.63;53.67;39090.75;5079533;28;20096;-65
2023/12/04 02:15:53;;;;;;;13.60;10.55;;;;;;;-145.63;53.84;39123.97;5065224;28;20048;-67
2023/12/04 02:18:22;;;;;;;14.00;10.50;;;;;;;-145.63;52.73;39118.13;5085056;28;20020;-66
2023/12/04 02:21:07;;;;;;;16.63;11.40;;;;;;;-145.63;53.87;39082.91;5092268;28;20027;-66
2023/12/04 02:23:33;;;;;;;12.30;9.93;;;;;;;-145.63;54.34;39100.50;5083549;28;20104;-65
2023/12/04 02:26:02;;;;;;;15.48;12.20;;;;;;;-145.63;53.97;38904.97;5074054;28;20128;-66
2023/12/04 02:28:37;;;;;;;14.98;10.82;;;;;;;-145.63;53.08;39135.72;5070623;28;20233;-66
2023/12/04 02:31:05;;;;;;;17.13;11.45;;;;;;;-145.63;53.81;39086.81;5082009;28;20051;-65
2023/12/04 02:33:33;;;;;;;14.88;11.43;;;;;;;-145.63;53.86;39077.06;5064546;28;20219;-65
2023/12/04 02:36:00;;;;;;;15.73;11.98;;;;;;;-145.63;52.37;39102.47;5080854;28;20141;-65
2023/12/04 02:38:27;;;;;;;13.05;11.07;;;;;;;-145.63;53.08;39082.91;5084412;28;20213;-65
2023/12/04 02:40:53;;;;;;;14.85;10.82;;;;;;;-145.63;52.52;39065.31;5084293;28;20021;-66
2023/12/04 02:43:18;;;;;;;14.45;11.68;;;;;;;-145.63;53.05;39067.28;5079790;28;20036;-65
2023/12/04 02:45:44;;;;;;;15.75;11.70;;;;;;;-145.63;52.84;39098.56;5064140;28;20305;-66
2023/12/04 02:48:10;;;;;;;15.27;11.50;;;;;;;-145.63;53.47;39061.41;5084001;28;20024;-67
2023/12/04 02:50:36;;;;;;;14.43;11.45;;;;;;;-145.63;53.25;39057.50;5084060;28;20073;-66
2023/12/04 02:53:01;;;;;;;13.90;10.70;;;;;;;-145.63;53.15;39110.28;5084063;28;20248;-66
2023/12/04 02:55:28;;;;;;;14.15;10.75;;;;;;;-145.63;53.29;39080.97;5078730;28;20021;-66
2023/12/04 02:57:54;;;;;;;13.63;10.88;;;;;;;-145.63;53.35;38816.97;5064739;28;20305;-65
2023/12/04 03:00:19;;;;;;;14.55;10.77;;;;;;;-145.63;53.92;39055.53;5083934;28;20039;-65
2023/12/04 03:02:45;;;;;;;15.55;10.88;;;;;;;-145.63;54.84;39069.22;5083918;28;20263;-66
2023/12/04 03:05:11;;;;;;;14.48;10.73;;;;;;;-145.63;54.36;39063.34;5072319;28;20251;-65
2023/12/04 03:07:36;;;;;;;13.35;10.88;;;;;;;-145.63;55.09;38983.19;5070547;28;20031;-64
2023/12/04 03:10:03;;;;;;;15.85;11.73;;;;;;;-145.63;54.43;39075.09;5082871;28;20024;-66
2023/12/04 03:12:30;;;;;;;15.95;11.10;;;;;;;-145.63;54.01;39086.81;5084166;28;20058;-65
2023/12/04 03:14:55;;;;;;;12.88;10.63;;;;;;;-145.63;54.51;39088.78;5069348;28;20032;-66
2023/12/04 03:17:21;;;;;;;14.73;11.32;;;;;;;-145.63;53.96;39106.38;5071070;28;20051;-66
2023/12/04 03:19:47;;;;;;;12.75;10.63;;;;;;;-145.63;53.75;39088.78;5075905;28;20089;-66
2023/12/04 03:22:13;;;;;;;14.05;11.32;;;;;;;-145.63;53.11;39075.09;5083362;28;20059;-66
2023/12/04 03:24:39;;;;;;;14.15;11.20;;;;;;;-145.63;54.36;39077.06;5083695;28;20024;-65
2023/12/04 03:27:04;;;;;;;13.40;11.18;;;;;;;-145.63;53.56;39086.81;5064570;28;20332;-66
2023/12/04 03:29:30;;;;;;;17.42;12.75;;;;;;;-145.63;54.04;39073.13;5077460;28;20024;-66
2023/12/04 03:31:56;;;;;;;18.60;12.93;;;;;;;-145.63;53.59;39077.06;5073975;28;20538;-66
2023/12/04 03:34:21;;;;;;;17.10;12.75;;;;;;;-145.63;52.98;38863.88;5067235;28;20055;-66
2023/12/04 03:36:47;;;;;;;22.95;14.35;;;;;;;-145.63;53.37;39075.09;5083117;28;20217;-65
2023/12/04 03:39:13;;;;;;;24.77;15.50;;;;;;;-145.63;53.51;39092.69;5077124;28;20096;-66
2023/12/04 03:41:38;;;;;;;32.28;19.45;;;;;;;-145.63;52.68;39079.00;5080382;28;20032;-66
2023/12/04 03:44:04;;;;;;;30.48;19.63;;;;;;;-145.63;53.80;39084.88;5091915;28;20498;-66
2023/12/04 03:46:30;;;;;;;24.58;16.48;;;;;;;-145.63;52.89;39090.75;5080713;28;20043;-67
2023/12/04 03:48:55;;;;;;;22.33;15.55;;;;;;;-145.63;52.87;39090.75;5074528;28;20028;-65
2023/12/04 03:51:21;;;;;;;16.17;11.95;;;;;;;-145.63;53.92;39079.00;5083040;28;20324;-67
2023/12/04 03:53:47;;;;;;;14.77;11.57;;;;;;;-145.63;53.40;39049.66;5066601;28;20033;-67
2023/12/04 03:56:12;;;;;;;22.13;15.05;;;;;;;-145.63;53.18;39057.50;5073984;28;20036;-67
2023/12/04 03:58:38;;;;;;;21.92;14.65;;;;;;;-145.63;52.34;39098.56;5075907;28;20091;-67
2023/12/04 04:01:04;;;;;;;22.35;14.70;;;;;;;-145.63;52.78;39104.44;5070919;28;20031;-66
2023/12/04 04:03:30;;;;;;;26.02;16.52;;;;;;;-145.63;52.50;39075.09;5067893;28;20321;-66
2023/12/04 04:05:55;;;;;;;26.15;16.52;;;;;;;-145.63;53.63;39079.00;5065257;28;20052;-66
2023/12/04 04:08:21;;;;;;;20.73;13.75;;;;;;;-145.63;53.30;39061.41;5074901;28;20039;-66
2023/12/04 04:10:47;;;;;;;21.45;15.00;;;;;;;-145.63;53.48;39102.47;5074179;28;20048;-65
2023/12/04 04:13:12;;;;;;;23.50;16.63;;;;;;;-145.63;53.66;39108.34;5073662;28;20044;-67
2023/12/04 04:15:38;;;;;;;23.38;15.77;;;;;;;-145.63;53.86;39118.13;5082141;28;20376;-67
2023/12/04 04:18:04;;;;;;;17.77;13.18;;;;;;;-145.63;54.25;39077.06;5082490;28;20029;-67
2023/12/04 04:20:29;;;;;;;15.98;12.35;;;;;;;-145.63;53.21;39098.56;5095286;28;20020;-66
2023/12/04 04:22:55;;;;;;;17.45;12.75;;;;;;;-145.63;53.18;39080.97;5081099;28;20025;-67
2023/12/04 04:25:24;;;;;;;16.17;12.98;;;;;;;-145.63;54.05;38607.72;5078463;28;20040;-67
2023/12/04 04:27:50;;;;;;;15.82;12.55;;;;;;;-145.63;53.43;39098.56;5062207;28;20037;-65
2023/12/04 04:30:17;;;;;;;14.70;11.73;;;;;;;-145.63;54.33;39088.78;5080729;28;20074;-67
2023/12/04 04:32:43;;;;;;;14.90;11.35;;;;;;;-145.63;53.94;39055.53;5067724;28;20020;-67
2023/12/04 04:35:09;;;;;;;15.10;12.65;;;;;;;-145.63;54.66;39190.47;5081498;28;20044;-67
2023/12/04 04:37:35;;;;;;;16.25;12.60;;;;;;;-145.63;52.96;39104.44;5076504;28;20021;-67
2023/12/04 04:40:01;;;;;;;16.45;12.57;;;;;;;-145.63;53.26;39086.81;5081578;28;20028;-66
2023/12/04 04:42:30;;;;;;;17.40;13.25;;;;;;;-145.63;53.89;39106.38;5082609;28;20054;-66
2023/12/04 04:44:55;;;;;;;15.18;13.05;;;;;;;-145.63;53.65;39045.75;5072988;28;20025;-64
2023/12/04 04:47:21;;;;;;;16.83;13.35;;;;;;;-145.63;54.96;39092.69;5061895;28;20032;-66
2023/12/04 04:49:47;;;;;;;15.80;12.85;;;;;;;-145.63;53.82;39071.19;5080855;28;20558;-66
2023/12/04 04:52:12;;;;;;;17.00;12.80;;;;;;;-145.63;54.60;39075.09;5079809;28;20032;-66
2023/12/04 04:54:38;;;;;;;15.45;12.85;;;;;;;-145.63;54.29;39073.13;5061996;28;20049;-66
2023/12/04 04:57:04;;;;;;;16.77;12.70;;;;;;;-145.63;54.74;39051.63;5080110;28;20021;-68
2023/12/04 04:59:31;;;;;;;16.60;13.40;;;;;;;-145.63;54.57;39061.41;5081922;28;20040;-66
2023/12/04 05:01:57;;;;;;;19.05;13.73;;;;;;;-145.63;53.67;39065.31;5080641;28;20036;-67
2023/12/04 05:04:23;;;;;;;17.58;13.25;;;;;;;-145.63;54.15;39114.22;5080782;28;20204;-67
2023/12/04 05:06:49;;;;;;;16.33;12.80;;;;;;;-145.63;54.40;39100.50;5081421;28;20095;-67
2023/12/04 05:09:15;;;;;;;17.45;13.68;;;;;;;-145.63;54.33;39090.75;5080297;28;20021;-69
2023/12/04 05:11:41;;;;;;;18.50;13.65;;;;;;;-145.63;53.17;39104.44;5079358;28;20073;-68
2023/12/04 05:14:07;;;;;;;17.60;13.60;;;;;;;-145.63;54.10;39114.22;5081637;28;20051;-67
2023/12/04 05:16:32;;;;;;;16.80;13.23;;;;;;;-145.63;53.70;39092.69;5082440;28;20028;-69
2023/12/04 05:18:58;;;;;;;17.10;13.48;;;;;;;-145.63;53.77;39088.78;5081564;28;20036;-68
2023/12/04 05:21:24;;;;;;;17.95;13.77;;;;;;;-145.63;53.83;39102.47;5094103;28;20205;-70
2023/12/04 05:23:49;;;;;;;18.35;14.13;;;;;;;-145.63;53.91;39123.97;5081888;28;20039;-68
2023/12/04 05:26:15;;;;;;;18.25;13.93;;;;;;;-145.63;53.76;38895.19;5070821;28;20021;-69
2023/12/04 05:28:41;;;;;;;15.98;13.00;;;;;;;-145.63;54.49;39080.97;5067852;28;20209;-71
2023/12/04 05:31:07;;;;;;;28.08;18.25;;;;;;;-145.63;53.80;39086.81;5080190;28;20028;-68
2023/12/04 05:33:32;;;;;;;21.33;15.45;;;;;;;-145.63;54.61;39090.75;5063627;28;20056;-69
2023/12/04 05:36:00;;;;;;;20.85;14.48;;;;;;;-145.63;54.44;39073.13;5081598;28;20040;-70
2023/12/04 05:38:25;;;;;;;17.92;14.40;;;;;;;-145.63;54.11;39079.00;5072878;28;20029;-70
2023/12/04 05:40:51;;;;;;;19.75;15.18;;;;;;;-145.63;53.66;39079.00;5074232;28;20048;-70
2023/12/04 05:43:18;;;;;;;22.08;15.50;;;;;;;-145.63;54.16;39055.53;5082332;28;20032;-69
2023/12/04 05:45:44;;;;;;;23.73;16.00;;;;;;;-145.63;54.21;39026.19;5064922;28;20033;-70
2023/12/04 05:48:09;;;;;;;20.20;15.40;;;;;;;-145.63;54.73;39098.56;5082858;28;20354;-70
2023/12/04 05:50:35;;;;;;;22.70;14.43;;;;;;;-145.63;54.23;39092.69;5071120;28;20063;-70
2023/12/04 05:53:01;;;;;;;22.15;15.57;;;;;;;-145.63;54.27;39090.75;5073156;28;20320;-69
2023/12/04 05:55:27;;;;;;;21.73;15.68;;;;;;;-145.63;54.31;39131.81;5080477;28;20025;-70
2023/12/04 05:57:52;;;;;;;22.45;15.52;;;;;;;-145.63;53.84;39106.38;5083675;28;20047;-70
2023/12/04 06:00:18;;;;;;;24.77;16.60;;;;;;;-145.63;53.78;39102.47;5084555;28;20036;-69
2023/12/04 06:02:45;;;;;;;18.05;14.23;;;;;;;-145.63;52.86;39129.84;5083013;28;20033;-69
2023/12/04 06:05:11;;;;;;;18.27;13.93;;;;;;;-145.63;53.71;39102.47;5074385;28;20241;-71
2023/12/04 06:07:37;;;;;;;19.70;14.57;;;;;;;-145.63;53.04;39094.66;5069717;28;20048;-70
2023/12/04 06:10:08;;;;;;;18.67;15.10;;;;;;;-145.63;54.21;39086.81;5083881;28;20039;-69
2023/12/04 06:12:34;;;;;;;18.95;13.95;;;;;;;-145.63;54.32;39071.19;5064838;28;20021;-69
2023/12/04 06:15:00;;;;;;;21.05;15.27;;;;;;;-145.63;53.31;39084.88;5080611;28;20060;-70
2023/12/04 06:17:27;;;;;;;18.75;14.80;;;;;;;-145.63;53.80;39080.97;5072732;28;20048;-69
2023/12/04 06:19:53;;;;;;;21.10;15.27;;;;;;;-145.63;54.40;39086.81;5080821;28;20099;-68
2023/12/04 06:22:21;;;;;;;19.00;14.82;;;;;;;-145.63;53.40;39073.13;5080176;28;20036;-70
2023/12/04 06:24:47;;;;;;;18.13;14.25;;;;;;;-145.63;53.98;39086.81;5083591;28;20039;-70
2023/12/04 06:27:19;;;;;;;19.20;15.27;;;;;;;-145.63;53.65;39059.44;5083141;28;20020;-69
2023/12/04 06:29:46;;;;;;;19.42;14.85;;;;;;;-145.63;53.42;39080.97;5081295;28;20029;-71
2023/12/04 06:32:12;;;;;;;18.65;15.02;;;;;;;-145.63;53.41;39098.56;5083827;28;20055;-70
2023/12/04 06:34:38;;;;;;;16.00;12.95;;;;;;;-145.63;54.42;39030.13;5082277;28;20110;-70
2023/12/04 06:37:12;;;;;;;17.30;14.27;;;;;;;-145.63;53.55;39039.88;5082251;28;20309;-73
2023/12/04 06:39:39;;;;;;;17.15;13.38;;;;;;;-145.63;53.16;39037.94;5083288;28;20016;-69
2023/12/04 06:42:09;;;;;;;17.77;14.30;;;;;;;-145.63;53.63;38899.09;5082427;28;20237;-71
2023/12/04 06:44:35;;;;;;;18.27;13.30;;;;;;;-145.63;52.94;39028.16;5081599;28;20082;-69
2023/12/04 06:47:02;;;;;;;18.42;13.73;;;;;;;-145.63;53.74;39075.09;5083978;28;20028;-72
2023/12/04 06:49:31;;;;;;;17.20;14.05;;;;;;;-145.63;53.67;39024.25;5081502;28;20025;-69
2023/12/04 06:51:56;;;;;;;16.67;12.85;;;;;;;-145.63;52.38;39059.44;5083051;28;20091;-70
2023/12/04 06:54:22;;;;;;;16.42;13.40;;;;;;;-145.63;52.75;39043.81;5081032;28;20201;-69
2023/12/04 06:56:48;;;;;;;18.00;13.85;;;;;;;-145.63;53.28;39047.72;5083405;28;20026;-68
2023/12/04 06:59:13;;;;;;;14.35;12.23;;;;;;;-145.63;53.33;38947.97;5081144;28;20016;-70
2023/12/04 07:01:39;;;;;;;17.50;13.73;;;;;;;-145.63;53.21;39002.72;5083148;28;20042;-69
2023/12/04 07:04:09;;;;;;;17.05;12.55;;;;;;;-145.63;53.03;39039.88;5083238;28;20327;-69
2023/12/04 07:06:36;;;;;;;16.47;13.83;;;;;;;-145.63;52.72;39047.72;5083321;28;20028;-71
2023/12/04 07:09:02;;;;;;;18.00;13.40;;;;;;;-145.63;52.18;39051.63;5081976;28;20095;-68
2023/12/04 07:11:28;;;;;;;17.38;13.65;;;;;;;-145.63;52.69;39020.34;5083400;28;20081;-70
2023/12/04 07:13:54;;;;;;;17.00;14.00;;;;;;;-145.63;52.76;39039.88;5081592;28;20048;-69
2023/12/04 07:16:19;;;;;;;17.95;13.95;;;;;;;-145.63;53.02;38766.13;5080746;28;20067;-70
2023/12/04 07:18:45;;;;;;;19.20;14.07;;;;;;;-145.63;52.98;39059.44;5082808;28;20353;-71
2023/12/04 07:21:11;;;;;;;24.48;16.33;;;;;;;-145.63;53.25;39061.41;5082761;28;20024;-70
2023/12/04 07:23:37;;;;;;;25.50;17.02;;;;;;;-145.63;53.60;39088.78;5080387;28;20020;-68
2023/12/04 07:26:03;;;;;;;26.40;16.92;;;;;;;-145.63;52.97;39041.84;5082103;28;20025;-69
2023/12/04 07:28:29;;;;;;;23.23;16.20;;;;;;;-145.63;52.69;39063.34;5078031;28;20100;-70
2023/12/04 07:30:55;;;;;;;23.42;16.20;;;;;;;-145.63;52.86;39032.06;5083189;28;20025;-67
2023/12/04 07:33:21;;;;;;;21.70;16.15;;;;;;;-145.63;52.89;39061.41;5081708;28;20077;-66
2023/12/04 07:35:47;;;;;;;22.52;16.80;;;;;;;-145.63;52.28;39051.63;5080275;28;20452;-70
2023/12/04 07:38:13;;;;;;;17.73;14.50;;;;;;;-145.63;53.41;39043.81;5081800;28;20059;-68
2023/12/04 07:40:38;;;;;;;16.40;13.65;;;;;;;-145.63;53.44;39057.50;5081898;28;20224;-67
2023/12/04 07:43:05;;;;;;;19.70;14.80;;;;;;;-145.63;52.70;39041.84;5081604;28;20052;-68
2023/12/04 07:45:31;;;;;;;17.88;13.57;;;;;;;-145.63;52.64;38889.31;5081869;28;20025;-68
2023/12/04 07:47:57;;;;;;;16.63;13.52;;;;;;;-145.63;52.07;39014.47;5067209;28;20035;-67
2023/12/04 07:50:24;;;;;;;15.82;13.70;;;;;;;-145.63;52.13;38406.31;5080035;28;20021;-66
2023/12/04 07:52:49;;;;;;;18.38;13.75;;;;;;;-145.63;52.13;38944.06;5082324;28;20472;-68
2023/12/04 07:55:15;;;;;;;17.35;13.20;;;;;;;-145.63;52.04;39055.53;5081928;28;20035;-68
2023/12/04 07:57:41;;;;;;;15.95;13.48;;;;;;;-145.63;51.83;39067.28;5082385;28;20087;-66
2023/12/04 08:00:07;;;;;;;18.75;14.25;;;;;;;-145.63;51.58;39043.81;5082682;28;20035;-69
2023/12/04 08:02:32;;;;;;;17.75;14.18;;;;;;;-145.63;52.62;39043.81;5081982;28;20351;-69
2023/12/04 08:04:58;;;;;;;18.63;14.88;;;;;;;-145.63;52.88;39024.25;5077146;28;20044;-67
2023/12/04 08:07:24;;;;;;;21.08;15.50;;;;;;;-145.63;52.87;39037.94;5080559;28;20088;-69
2023/12/04 08:09:50;;;;;;;18.30;14.57;;;;;;;-145.63;52.50;39084.88;5081572;28;20125;-68
2023/12/04 08:12:16;;;;;;;21.80;15.57;;;;;;;-145.63;52.45;39035.97;5082270;28;20029;-68
2023/12/04 08:14:42;;;;;;;19.30;15.45;;;;;;;-145.63;52.04;39090.75;5082053;28;20197;-69
2023/12/04 08:17:07;;;;;;;19.15;14.98;;;;;;;-145.63;52.33;39035.97;5080294;28;20032;-68
2023/12/04 08:19:33;;;;;;;20.65;15.35;;;;;;;-145.63;53.32;39049.66;5082183;28;20029;-68
2023/12/04 08:21:59;;;;;;;19.17;15.15;;;;;;;-145.63;53.00;39000.78;5080352;28;20020;-68
2023/12/04 08:24:25;;;;;;;18.60;14.57;;;;;;;-145.63;52.79;39032.06;5080397;28;20358;-69
2023/12/04 08:26:50;;;;;;;21.83;15.25;;;;;;;-145.63;51.85;39059.44;5064308;28;20025;-70
2023/12/04 08:29:17;;;;;;;19.52;15.40;;;;;;;-145.63;53.05;39022.28;5082126;28;20016;-70
2023/12/04 08:31:43;;;;;;;20.60;15.35;;;;;;;-145.63;53.20;39045.75;5082091;28;20044;-68
2023/12/04 08:34:09;;;;;;;22.15;16.35;;;;;;;-145.63;52.31;39043.81;5084801;28;20038;-68
2023/12/04 08:36:35;;;;;;;21.20;16.15;;;;;;;-145.63;53.16;39030.13;5081785;28;20197;-69
2023/12/04 08:39:01;;;;;;;19.65;15.63;;;;;;;-145.63;52.90;39192.44;5081897;28;20060;-68
2023/12/04 08:41:28;;;;;;;21.40;15.75;;;;;;;-145.63;52.04;39024.25;5081751;28;20503;-68
2023/12/04 08:43:55;;;;;;;21.48;15.77;;;;;;;-145.63;51.85;39000.78;5081890;28;20024;-69
2023/12/04 08:46:21;;;;;;;21.85;15.35;;;;;;;-145.63;52.66;38906.91;5082148;28;20028;-68
2023/12/04 08:48:46;;;;;;;21.42;14.60;;;;;;;-145.63;52.27;39069.22;5081564;28;20512;-68
2023/12/04 08:51:17;;;;;;;19.70;15.18;;;;;;;-145.63;51.92;39012.50;5081924;28;20048;-68
2023/12/04 08:53:42;;;;;;;19.00;15.20;;;;;;;-145.63;52.35;39035.97;5081955;28;20025;-68
2023/12/04 08:56:09;;;;;;;17.98;14.82;;;;;;;-145.63;52.56;39047.72;5082258;28;20044;-68
2023/12/04 08:58:35;;;;;;;21.10;15.50;;;;;;;-145.63;51.98;39053.59;5078622;28;20055;-69
2023/12/04 09:01:00;;;;;;;20.75;15.18;;;;;;;-145.63;51.72;39018.38;5080334;28;20328;-69
2023/12/04 09:03:26;;;;;;;20.33;15.00;;;;;;;-145.63;51.53;39016.44;5081844;28;20029;-68
2023/12/04 09:05:52;;;;;;;20.20;16.05;;;;;;;-145.63;52.65;39039.88;5081579;28;20051;-69
2023/12/04 09:08:18;;;;;;;22.77;16.42;;;;;;;-145.63;51.82;39014.47;5073554;28;20053;-67
2023/12/04 09:10:45;;;;;;;23.48;16.27;;;;;;;-145.63;52.26;39016.44;5076450;28;20028;-68
2023/12/04 09:13:11;;;;;;;23.52;16.98;;;;;;;-145.63;53.13;39041.84;5085990;28;20062;-68
2023/12/04 09:15:37;;;;;;;24.60;17.45;;;;;;;-145.63;52.25;39153.31;5067177;28;20029;-69
2023/12/04 09:18:03;;;;;;;23.63;17.92;;;;;;;-145.63;52.82;39008.59;5081204;28;20040;-68
2023/12/04 09:20:29;;;;;;;26.88;17.98;;;;;;;-145.63;52.14;39030.13;5096413;28;20051;-69
2023/12/04 09:22:55;;;;;;;24.05;16.60;;;;;;;-145.63;52.45;39026.19;5085782;28;20200;-69
2023/12/04 09:25:20;;;;;;;22.90;16.52;;;;;;;-145.63;52.21;39037.94;5084972;28;20166;-68
2023/12/04 09:27:46;;;;;;;24.17;16.65;;;;;;;-145.63;51.22;39043.81;5065613;28;20032;-68
2023/12/04 09:30:13;;;;;;;21.20;15.70;;;;;;;-145.63;51.24;39082.91;5079934;28;20028;-69
2023/12/04 09:32:39;;;;;;;19.77;14.93;;;;;;;-145.63;50.96;39002.72;5084836;28;20047;-68
2023/12/04 09:35:07;;;;;;;19.95;15.15;;;;;;;-145.63;50.91;39018.38;5078016;28;20145;-69
2023/12/04 09:37:32;;;;;;;17.98;14.30;;;;;;;-145.63;51.08;39020.34;5068956;28;20034;-69
2023/12/04 09:39:58;;;;;;;18.88;14.20;;;;;;;-145.63;51.40;39043.81;5084286;28;20048;-69
2023/12/04 09:42:24;;;;;;;18.70;14.15;;;;;;;-145.63;50.89;39053.59;5081212;28;20066;-69
2023/12/04 09:44:52;;;;;;;20.98;15.00;;;;;;;-145.63;51.49;39073.13;5084885;28;20047;-69
2023/12/04 09:47:18;;;;;;;20.10;15.43;;;;;;;-145.63;51.86;39061.41;5079674;28;20189;-69
2023/12/04 09:49:45;;;;;;;18.95;14.48;;;;;;;-145.63;51.43;39061.41;5083473;28;20028;-68
2023/12/04 09:52:11;;;;;;;20.05;14.55;;;;;;;-145.63;50.75;39039.88;5082991;28;20380;-68
2023/12/04 09:54:38;;;;;;;18.50;14.55;;;;;;;-145.63;51.31;39063.34;5083545;28;20028;-69
2023/12/04 09:57:05;;;;;;;18.58;14.18;;;;;;;-145.63;50.43;39170.91;5079538;28;20286;-70
2023/12/04 09:59:31;;;;;;;18.13;14.63;;;;;;;-145.63;49.92;39067.28;5083552;28;20025;-68
2023/12/04 10:01:57;;;;;;;20.13;14.70;;;;;;;-145.63;50.43;39069.22;5079742;28;20208;-70
2023/12/04 10:04:25;;;;;;;19.23;14.90;;;;;;;-145.63;50.33;38594.03;5083033;28;20035;-69
2023/12/04 10:06:52;;;;;;;19.58;15.55;;;;;;;-145.63;50.59;39086.81;5083650;28;20039;-68
2023/12/04 10:09:19;;;;;;;20.80;14.18;;;;;;;-145.63;51.10;39034.03;5084187;28;20299;-69
2023/12/04 10:11:45;;;;;;;17.00;13.93;;;;;;;-145.63;50.19;38903.00;5081586;28;20090;-69
2023/12/04 10:14:21;;;;;;;16.80;13.60;;;;;;;-145.63;50.31;39020.34;5078397;28;20251;-68
2023/12/04 10:16:48;;;;;;;18.98;13.98;;;;;;;-145.63;49.89;39051.63;5071727;28;20047;-68
2023/12/04 10:19:17;;;;;;;20.23;14.57;;;;;;;-145.63;49.74;39051.63;5084315;28;20017;-68
2023/12/04 10:21:47;;;;;;;24.27;14.15;;;;;;;-145.63;50.03;39047.72;5075411;28;20028;-69
2023/12/04 10:24:31;;;;;;;19.10;14.30;;;;;;;-145.63;51.29;39043.81;5068374;28;20036;-68
2023/12/04 10:26:57;;;;;;;16.55;13.68;;;;;;;-145.63;51.45;39059.44;5077736;28;20024;-68
2023/12/04 10:29:25;;;;;;;18.92;14.45;;;;;;;-145.63;50.48;39051.63;5077788;28;20024;-68
2023/12/04 10:31:52;;;;;;;16.75;14.00;;;;;;;-145.63;51.12;39055.53;5081310;28;20037;-68
2023/12/04 10:34:19;;;;;;;20.33;14.68;;;;;;;-145.63;50.94;39039.88;5080276;28;20303;-70
2023/12/04 10:36:46;;;;;;;22.90;15.38;;;;;;;-145.63;50.24;39035.97;5082158;28;20359;-69
2023/12/04 10:39:13;;;;;;;20.48;15.57;;;;;;;-145.63;51.63;39065.31;5067557;28;20101;-70
2023/12/04 10:41:39;;;;;;;19.02;14.20;;;;;;;-145.63;50.08;39051.63;5083828;28;20036;-68
2023/12/04 10:44:04;;;;;;;18.90;15.07;;;;;;;-145.63;49.85;39035.97;5080712;28;20212;-70
2023/12/04 10:46:31;;;;;;;19.30;15.48;;;;;;;-145.63;50.78;39065.31;5081055;28;20021;-69
2023/12/04 10:48:58;;;;;;;18.73;14.45;;;;;;;-145.63;50.37;39049.66;5079172;28;20171;-69
2023/12/04 10:51:28;;;;;;;17.15;14.13;;;;;;;-145.63;50.94;39069.22;5082816;28;20012;-72
2023/12/04 10:53:54;;;;;;;18.73;14.60;;;;;;;-145.63;51.01;39024.25;5083958;28;20092;-69
2023/12/04 10:56:33;;;;;;;19.85;15.20;;;;;;;-145.63;50.39;39084.88;5083192;28;20325;-69
2023/12/04 10:59:04;;;;;;;19.17;14.85;;;;;;;-145.63;50.72;39049.66;5080555;28;20017;-69